createdAt,value
2023-03-11T00:01:09.044Z,73.88
2023-03-11T00:06:16.929Z,74.08
2023-03-11T00:11:25.599Z,73.96
2023-03-11T00:16:33.387Z,73.94
2023-03-11T00:21:41.116Z,73.93
2023-03-11T00:26:48.713Z,73.91
2023-03-11T00:31:56.679Z,73.99
2023-03-11T00:37:04.555Z,74.08
2023-03-11T00:42:12.633Z,73.96
2023-03-11T00:47:20.314Z,73.97
2023-03-11T00:52:29.413Z,74.02
2023-03-11T00:57:37.353Z,74.00
2023-03-11T01:02:45.315Z,74.06
2023-03-11T01:07:53.641Z,74.06
2023-03-11T01:13:01.911Z,74.18
2023-03-11T01:18:10.431Z,74.02
2023-03-11T01:23:19.290Z,74.05
2023-03-11T01:28:27.990Z,74.15
2023-03-11T01:33:36.193Z,74.20
2023-03-11T01:38:44.818Z,74.20
2023-03-11T01:43:56.419Z,74.10
2023-03-11T01:49:16.731Z,74.20
2023-03-11T01:54:27.777Z,74.33
2023-03-11T01:59:39.731Z,74.25
2023-03-11T02:04:48.346Z,74.14
2023-03-11T02:09:56.133Z,74.25
2023-03-11T02:15:04.352Z,74.34
2023-03-11T02:20:30.238Z,74.32
2023-03-11T02:25:44.165Z,74.35
2023-03-11T02:30:54.203Z,74.46
2023-03-11T02:36:03.324Z,74.45
2023-03-11T02:41:11.890Z,74.36
2023-03-11T02:46:21.262Z,74.34
2023-03-11T02:51:30.360Z,74.37
2023-03-11T02:56:38.678Z,74.62
2023-03-11T03:01:47.022Z,74.48
2023-03-11T03:06:54.608Z,74.44
2023-03-11T03:12:03.482Z,74.31
2023-03-11T03:17:12.329Z,74.44
2023-03-11T03:22:21.305Z,74.57
2023-03-11T03:27:30.044Z,74.46
2023-03-11T03:32:42.053Z,74.44
2023-03-11T03:37:52.960Z,74.51
2023-03-11T03:43:02.547Z,74.43
2023-03-11T03:48:11.120Z,74.63
2023-03-11T03:53:23.127Z,74.58
2023-03-11T03:58:31.295Z,74.53
2023-03-11T04:03:39.958Z,74.58
2023-03-11T04:08:52.603Z,74.57
2023-03-11T04:14:03.071Z,74.65
2023-03-11T04:19:13.750Z,74.74
2023-03-11T04:24:21.274Z,74.92
2023-03-11T04:29:29.164Z,74.92
2023-03-11T04:34:36.624Z,74.81
2023-03-11T04:39:44.887Z,74.80
2023-03-11T04:44:53.018Z,74.76
2023-03-11T04:50:01.734Z,74.85
2023-03-11T04:55:14.264Z,74.81
2023-03-11T05:00:25.420Z,74.65
2023-03-11T05:05:41.725Z,74.87
2023-03-11T05:10:50.365Z,74.89
2023-03-11T05:15:59.040Z,74.70
2023-03-11T05:21:07.185Z,74.91
2023-03-11T05:26:15.375Z,74.68
2023-03-11T05:31:23.960Z,74.96
2023-03-11T05:36:32.370Z,74.96
2023-03-11T05:41:41.055Z,74.96
2023-03-11T05:46:49.516Z,74.87
2023-03-11T05:51:58.900Z,74.77
2023-03-11T05:57:08.870Z,74.94
2023-03-11T06:02:18.674Z,74.76
2023-03-11T06:07:26.636Z,75.03
2023-03-11T06:12:35.582Z,74.85
2023-03-11T06:17:52.809Z,74.86
2023-03-11T06:23:01.264Z,74.81
2023-03-11T06:28:09.827Z,75.01
2023-03-11T06:33:18.381Z,74.82
2023-03-11T06:38:27.857Z,74.86
2023-03-11T06:43:37.393Z,75.12
2023-03-11T06:48:47.609Z,75.01
2023-03-11T06:53:57.676Z,74.99
2023-03-11T06:59:06.422Z,75.02
2023-03-11T07:04:15.689Z,75.22
2023-03-11T07:09:25.744Z,75.11
2023-03-11T07:14:34.366Z,75.04
2023-03-11T07:19:42.821Z,75.02
2023-03-11T07:24:51.765Z,74.87
2023-03-11T07:30:00.153Z,74.90
2023-03-11T07:35:09.534Z,75.20
2023-03-11T07:40:18.596Z,75.01
2023-03-11T07:45:26.997Z,74.96
2023-03-11T07:50:34.471Z,75.14
2023-03-11T07:55:41.852Z,75.19
2023-03-11T08:00:49.321Z,75.10
2023-03-11T08:05:57.336Z,74.99
2023-03-11T08:11:07.552Z,75.14
2023-03-11T08:16:17.622Z,75.14
2023-03-11T08:21:27.642Z,75.16
2023-03-11T08:26:35.941Z,74.99
2023-03-11T08:31:44.739Z,75.10
2023-03-11T08:36:52.874Z,75.01
2023-03-11T08:42:01.597Z,74.91
2023-03-11T08:47:10.603Z,74.78
2023-03-11T08:52:19.188Z,74.76
2023-03-11T08:57:27.305Z,74.68
2023-03-11T09:02:35.522Z,74.69
2023-03-11T09:07:45.143Z,74.43
2023-03-11T09:12:53.277Z,74.21
2023-03-11T09:18:01.492Z,74.35
2023-03-11T09:23:08.989Z,74.34
2023-03-11T09:28:17.417Z,74.21
2023-03-11T09:33:26.147Z,74.37
2023-03-11T09:38:35.091Z,74.17
2023-03-11T09:44:00.500Z,74.28
2023-03-11T09:49:17.691Z,74.16
2023-03-11T09:54:25.819Z,74.09
2023-03-11T09:59:35.318Z,73.87
2023-03-11T10:04:50.325Z,73.91
2023-03-11T10:09:59.895Z,73.92
2023-03-11T10:15:17.062Z,73.62
2023-03-11T10:20:29.825Z,73.40
2023-03-11T10:25:49.521Z,73.71
2023-03-11T10:31:02.783Z,73.49
2023-03-11T10:36:18.023Z,73.41
2023-03-11T10:41:34.141Z,73.39
2023-03-11T10:46:41.853Z,73.53
2023-03-11T10:51:52.132Z,73.27
2023-03-11T10:57:01.702Z,73.33
2023-03-11T11:02:28.053Z,73.05
2023-03-11T11:07:40.028Z,73.19
2023-03-11T11:12:59.658Z,73.04
2023-03-11T11:18:20.576Z,73.34
2023-03-11T11:23:36.335Z,73.19
2023-03-11T11:28:44.973Z,73.15
2023-03-11T11:33:56.730Z,73.13
2023-03-11T11:39:14.085Z,73.03
2023-03-11T11:44:30.788Z,73.17
2023-03-11T11:49:47.389Z,73.14
2023-03-11T11:55:01.128Z,73.05
2023-03-11T12:00:22.009Z,72.83
2023-03-11T12:05:34.949Z,72.85
2023-03-11T12:10:49.144Z,72.76
2023-03-11T12:16:03.244Z,72.83
2023-03-11T12:21:27.843Z,72.85
2023-03-11T12:26:39.789Z,72.54
2023-03-11T12:31:50.153Z,72.49
2023-03-11T12:37:03.665Z,72.38
2023-03-11T12:42:23.021Z,72.52
2023-03-11T12:47:35.241Z,72.16
2023-03-11T12:52:57.017Z,71.98
2023-03-11T12:58:34.765Z,71.97
2023-03-11T13:03:53.348Z,72.02
2023-03-11T13:09:02.544Z,71.93
2023-03-11T13:14:34.624Z,71.86
2023-03-11T13:20:02.028Z,72.02
2023-03-11T13:30:54.310Z,71.83
2023-03-11T13:36:34.922Z,71.86
2023-03-11T13:41:46.197Z,71.63
2023-03-11T13:46:58.775Z,71.58
2023-03-11T13:52:10.307Z,71.60
2023-03-11T13:57:34.973Z,71.48
2023-03-11T14:02:51.435Z,71.50
2023-03-11T14:08:22.268Z,71.37
2023-03-11T14:13:31.658Z,71.47
2023-03-11T14:18:42.022Z,71.46
2023-03-11T14:23:51.813Z,71.41
2023-03-11T14:29:03.527Z,71.06
2023-03-11T14:34:19.907Z,71.00
2023-03-11T14:39:33.045Z,70.78
2023-03-11T14:44:45.581Z,70.51
2023-03-11T14:49:55.319Z,70.47
2023-03-11T14:55:05.650Z,70.67
2023-03-11T15:00:21.277Z,70.82
2023-03-11T15:05:35.946Z,70.78
2023-03-11T15:11:03.527Z,70.62
2023-03-11T15:16:34.298Z,70.45
2023-03-11T15:21:50.102Z,70.49
2023-03-11T15:27:00.409Z,70.37
2023-03-11T15:32:28.493Z,70.25
2023-03-11T15:37:36.963Z,70.04
2023-03-11T15:42:44.905Z,70.25
2023-03-11T15:47:53.699Z,69.99
2023-03-11T15:53:03.889Z,70.04
2023-03-11T15:58:14.091Z,70.07
2023-03-11T16:03:22.461Z,69.72
2023-03-11T16:08:31.023Z,69.85
2023-03-11T16:13:39.887Z,69.79
2023-03-11T16:18:47.268Z,69.81
2023-03-11T16:23:55.833Z,69.84
2023-03-11T16:29:18.211Z,69.90
2023-03-11T16:34:27.691Z,69.94
2023-03-11T16:39:35.965Z,70.02
2023-03-11T16:44:43.415Z,69.87
2023-03-11T16:49:53.926Z,69.84
2023-03-11T16:55:02.786Z,69.79
2023-03-11T17:00:13.623Z,69.87
2023-03-11T17:05:22.343Z,69.88
2023-03-11T17:10:31.055Z,70.14
2023-03-11T17:15:43.331Z,70.13
2023-03-11T17:20:51.606Z,70.09
2023-03-11T17:26:01.653Z,69.91
2023-03-11T17:31:15.288Z,70.03
2023-03-11T17:36:24.069Z,70.07
2023-03-11T17:41:32.752Z,70.10
2023-03-11T17:46:41.707Z,70.19
2023-03-11T17:51:51.532Z,70.11
2023-03-11T17:57:00.255Z,70.08
2023-03-11T18:02:09.211Z,69.98
2023-03-11T18:07:17.591Z,69.84
2023-03-11T18:12:27.147Z,69.34
2023-03-11T18:17:35.948Z,69.16
2023-03-11T18:22:46.736Z,68.86
2023-03-11T18:27:56.124Z,68.72
2023-03-11T18:33:04.270Z,68.52
2023-03-11T18:38:13.205Z,68.39
2023-03-11T18:43:21.810Z,68.31
2023-03-11T18:48:30.206Z,67.83
2023-03-11T18:53:38.173Z,67.95
2023-03-11T18:58:47.320Z,67.76
2023-03-11T19:03:55.966Z,67.41
2023-03-11T19:09:05.938Z,67.31
2023-03-11T19:14:14.551Z,67.16
2023-03-11T19:19:22.012Z,67.05
2023-03-11T19:24:30.364Z,66.93
2023-03-11T19:29:38.031Z,67.04
2023-03-11T19:34:45.399Z,66.94
2023-03-11T19:39:52.996Z,67.00
2023-03-11T19:45:01.672Z,66.86
2023-03-11T19:50:11.199Z,66.78
2023-03-11T19:55:19.848Z,67.06
2023-03-11T20:00:29.708Z,67.22
2023-03-11T20:05:39.336Z,67.37
2023-03-11T20:10:49.724Z,67.65
2023-03-11T20:15:58.062Z,68.06
2023-03-11T20:21:09.253Z,68.44
2023-03-11T20:26:20.113Z,68.57
2023-03-11T20:31:30.739Z,68.71
2023-03-11T20:36:39.341Z,68.77
2023-03-11T20:41:47.751Z,68.91
2023-03-11T20:46:56.595Z,69.07
2023-03-11T20:52:05.112Z,69.01
2023-03-11T20:57:12.764Z,68.96
2023-03-11T21:02:21.359Z,68.56
2023-03-11T21:07:30.395Z,68.46
2023-03-11T21:12:39.342Z,68.34
2023-03-11T21:17:48.183Z,68.09
2023-03-11T21:22:56.771Z,68.13
2023-03-11T21:28:05.525Z,67.87
2023-03-11T21:33:14.587Z,67.76
2023-03-11T21:38:22.969Z,67.57
2023-03-11T21:43:32.122Z,67.70
2023-03-11T21:48:41.319Z,67.56
2023-03-11T21:53:49.206Z,67.45
2023-03-11T21:58:57.497Z,67.45
2023-03-11T22:04:05.210Z,67.51
2023-03-11T22:09:12.606Z,67.26
2023-03-11T22:14:20.886Z,67.45
2023-03-11T22:19:29.425Z,67.44
2023-03-11T22:24:37.799Z,67.51
2023-03-11T22:29:46.196Z,67.66
2023-03-11T22:34:54.596Z,67.61
2023-03-11T22:40:02.825Z,67.65
2023-03-11T22:45:12.528Z,67.78
2023-03-11T22:50:21.789Z,67.89
2023-03-11T22:55:30.359Z,68.11
2023-03-11T23:00:38.940Z,68.13
2023-03-11T23:05:47.373Z,68.23
2023-03-11T23:10:55.785Z,68.09
2023-03-11T23:16:08.658Z,68.12
2023-03-11T23:21:21.817Z,68.07
2023-03-11T23:26:31.549Z,68.11
2023-03-11T23:31:39.838Z,68.03
2023-03-11T23:36:47.144Z,67.93
2023-03-11T23:41:56.106Z,67.90
2023-03-11T23:47:03.457Z,67.95
2023-03-11T23:52:12.390Z,67.82
2023-03-11T23:57:20.092Z,67.94
